sensor_id;sensor_type;location;lat;lon;timestamp;P1;durP1;ratioP1;P2;durP2;ratioP2
5042;SDS011;2540;50.928;6.856;2022-08-03T00:01:15;6.47;;;4.67;;
5042;SDS011;2540;50.928;6.856;2022-08-03T00:03:40;4.07;;;2.80;;
5042;SDS011;2540;50.928;6.856;2022-08-03T00:06:05;3.80;;;2.97;;
5042;SDS011;2540;50.928;6.856;2022-08-03T00:08:31;4.50;;;3.63;;
5042;SDS011;2540;50.928;6.856;2022-08-03T00:10:56;11.20;;;3.13;;
5042;SDS011;2540;50.928;6.856;2022-08-03T00:13:21;6.20;;;3.20;;
5042;SDS011;2540;50.928;6.856;2022-08-03T00:15:47;6.03;;;3.10;;
5042;SDS011;2540;50.928;6.856;2022-08-03T00:18:12;7.53;;;3.20;;
5042;SDS011;2540;50.928;6.856;2022-08-03T00:20:37;3.80;;;3.10;;
5042;SDS011;2540;50.928;6.856;2022-08-03T00:23:03;4.70;;;3.00;;
5042;SDS011;2540;50.928;6.856;2022-08-03T00:25:28;5.77;;;3.57;;
5042;SDS011;2540;50.928;6.856;2022-08-03T00:27:53;9.17;;;3.57;;
5042;SDS011;2540;50.928;6.856;2022-08-03T00:30:19;5.97;;;3.10;;
5042;SDS011;2540;50.928;6.856;2022-08-03T00:32:44;5.57;;;3.10;;
5042;SDS011;2540;50.928;6.856;2022-08-03T00:35:09;7.63;;;3.70;;
5042;SDS011;2540;50.928;6.856;2022-08-03T00:37:34;7.20;;;3.20;;
5042;SDS011;2540;50.928;6.856;2022-08-03T00:39:59;7.70;;;3.30;;
5042;SDS011;2540;50.928;6.856;2022-08-03T00:42:25;7.23;;;3.20;;
5042;SDS011;2540;50.928;6.856;2022-08-03T00:44:50;7.40;;;2.30;;
5042;SDS011;2540;50.928;6.856;2022-08-03T00:47:15;6.10;;;2.80;;
5042;SDS011;2540;50.928;6.856;2022-08-03T00:49:40;6.40;;;3.07;;
5042;SDS011;2540;50.928;6.856;2022-08-03T00:52:07;4.50;;;3.10;;
5042;SDS011;2540;50.928;6.856;2022-08-03T00:54:32;8.00;;;2.93;;
5042;SDS011;2540;50.928;6.856;2022-08-03T00:56:58;3.27;;;2.50;;
5042;SDS011;2540;50.928;6.856;2022-08-03T00:59:23;8.30;;;2.80;;
5042;SDS011;2540;50.928;6.856;2022-08-03T01:01:48;6.90;;;2.90;;
5042;SDS011;2540;50.928;6.856;2022-08-03T01:04:14;4.93;;;3.10;;
5042;SDS011;2540;50.928;6.856;2022-08-03T01:06:45;4.17;;;2.80;;
5042;SDS011;2540;50.928;6.856;2022-08-03T01:09:26;3.37;;;2.80;;
5042;SDS011;2540;50.928;6.856;2022-08-03T01:11:54;4.90;;;3.30;;
5042;SDS011;2540;50.928;6.856;2022-08-03T01:14:23;5.03;;;3.03;;
5042;SDS011;2540;50.928;6.856;2022-08-03T01:19:57;5.33;;;2.90;;
5042;SDS011;2540;50.928;6.856;2022-08-03T01:27:11;4.23;;;2.70;;
5042;SDS011;2540;50.928;6.856;2022-08-03T01:32:11;3.60;;;2.57;;
5042;SDS011;2540;50.928;6.856;2022-08-03T01:34:42;5.43;;;3.27;;
5042;SDS011;2540;50.928;6.856;2022-08-03T01:37:08;3.77;;;2.57;;
5042;SDS011;2540;50.928;6.856;2022-08-03T01:39:34;3.23;;;2.80;;
5042;SDS011;2540;50.928;6.856;2022-08-03T01:42:03;2.73;;;2.43;;
5042;SDS011;2540;50.928;6.856;2022-08-03T01:44:30;3.10;;;2.80;;
5042;SDS011;2540;50.928;6.856;2022-08-03T01:46:58;9.97;;;3.17;;
5042;SDS011;2540;50.928;6.856;2022-08-03T01:49:24;4.23;;;2.90;;
5042;SDS011;2540;50.928;6.856;2022-08-03T01:51:50;4.23;;;2.73;;
5042;SDS011;2540;50.928;6.856;2022-08-03T01:54:16;3.73;;;2.77;;
5042;SDS011;2540;50.928;6.856;2022-08-03T01:56:42;3.77;;;2.77;;
5042;SDS011;2540;50.928;6.856;2022-08-03T01:59:08;7.00;;;2.63;;
5042;SDS011;2540;50.928;6.856;2022-08-03T02:01:35;6.33;;;3.07;;
5042;SDS011;2540;50.928;6.856;2022-08-03T02:04:01;6.80;;;3.47;;
5042;SDS011;2540;50.928;6.856;2022-08-03T02:06:28;16.73;;;3.10;;
5042;SDS011;2540;50.928;6.856;2022-08-03T02:08:54;3.70;;;2.77;;
5042;SDS011;2540;50.928;6.856;2022-08-03T02:11:20;8.63;;;3.80;;
5042;SDS011;2540;50.928;6.856;2022-08-03T02:13:46;3.50;;;2.77;;
5042;SDS011;2540;50.928;6.856;2022-08-03T02:16:12;4.70;;;3.10;;
5042;SDS011;2540;50.928;6.856;2022-08-03T02:18:38;5.10;;;3.47;;
5042;SDS011;2540;50.928;6.856;2022-08-03T02:21:04;5.30;;;2.97;;
5042;SDS011;2540;50.928;6.856;2022-08-03T02:23:29;6.07;;;2.90;;
5042;SDS011;2540;50.928;6.856;2022-08-03T02:25:59;3.80;;;3.00;;
5042;SDS011;2540;50.928;6.856;2022-08-03T02:28:28;5.13;;;3.00;;
5042;SDS011;2540;50.928;6.856;2022-08-03T02:30:55;7.63;;;3.47;;
5042;SDS011;2540;50.928;6.856;2022-08-03T02:33:42;8.27;;;3.40;;
5042;SDS011;2540;50.928;6.856;2022-08-03T02:36:10;6.33;;;3.73;;
5042;SDS011;2540;50.928;6.856;2022-08-03T02:38:37;6.37;;;2.93;;
5042;SDS011;2540;50.928;6.856;2022-08-03T02:41:06;6.43;;;3.27;;
5042;SDS011;2540;50.928;6.856;2022-08-03T02:43:31;5.97;;;3.30;;
5042;SDS011;2540;50.928;6.856;2022-08-03T02:45:58;6.13;;;3.87;;
5042;SDS011;2540;50.928;6.856;2022-08-03T02:48:24;8.80;;;3.87;;
5042;SDS011;2540;50.928;6.856;2022-08-03T02:50:51;5.53;;;3.27;;
5042;SDS011;2540;50.928;6.856;2022-08-03T02:53:17;8.03;;;3.70;;
5042;SDS011;2540;50.928;6.856;2022-08-03T02:55:43;3.30;;;2.80;;
5042;SDS011;2540;50.928;6.856;2022-08-03T02:58:10;3.77;;;3.13;;
5042;SDS011;2540;50.928;6.856;2022-08-03T03:00:36;5.43;;;3.50;;
5042;SDS011;2540;50.928;6.856;2022-08-03T03:03:02;4.60;;;3.20;;
5042;SDS011;2540;50.928;6.856;2022-08-03T03:05:28;5.07;;;2.80;;
5042;SDS011;2540;50.928;6.856;2022-08-03T03:07:54;6.63;;;3.50;;
5042;SDS011;2540;50.928;6.856;2022-08-03T03:10:20;7.27;;;3.43;;
5042;SDS011;2540;50.928;6.856;2022-08-03T03:12:45;4.80;;;2.97;;
5042;SDS011;2540;50.928;6.856;2022-08-03T03:15:12;6.63;;;3.40;;
5042;SDS011;2540;50.928;6.856;2022-08-03T03:17:37;8.03;;;2.90;;
5042;SDS011;2540;50.928;6.856;2022-08-03T03:20:03;9.40;;;3.93;;
5042;SDS011;2540;50.928;6.856;2022-08-03T03:22:28;7.33;;;3.43;;
5042;SDS011;2540;50.928;6.856;2022-08-03T03:24:54;3.87;;;3.00;;
5042;SDS011;2540;50.928;6.856;2022-08-03T03:27:20;5.70;;;3.60;;
5042;SDS011;2540;50.928;6.856;2022-08-03T03:29:45;7.20;;;3.47;;
5042;SDS011;2540;50.928;6.856;2022-08-03T03:32:10;4.23;;;3.27;;
5042;SDS011;2540;50.928;6.856;2022-08-03T03:34:36;6.17;;;3.40;;
5042;SDS011;2540;50.928;6.856;2022-08-03T03:37:01;10.07;;;3.00;;
5042;SDS011;2540;50.928;6.856;2022-08-03T03:39:26;4.50;;;2.87;;
5042;SDS011;2540;50.928;6.856;2022-08-03T03:41:52;4.90;;;2.90;;
5042;SDS011;2540;50.928;6.856;2022-08-03T03:44:17;6.20;;;3.13;;
5042;SDS011;2540;50.928;6.856;2022-08-03T03:46:42;7.47;;;3.43;;
5042;SDS011;2540;50.928;6.856;2022-08-03T03:49:07;4.03;;;2.83;;
5042;SDS011;2540;50.928;6.856;2022-08-03T03:51:33;5.77;;;3.07;;
5042;SDS011;2540;50.928;6.856;2022-08-03T03:53:59;4.77;;;2.67;;
5042;SDS011;2540;50.928;6.856;2022-08-03T03:56:24;12.17;;;2.93;;
5042;SDS011;2540;50.928;6.856;2022-08-03T03:58:50;6.40;;;3.20;;
5042;SDS011;2540;50.928;6.856;2022-08-03T04:01:15;5.67;;;3.00;;
5042;SDS011;2540;50.928;6.856;2022-08-03T04:03:40;6.83;;;3.40;;
5042;SDS011;2540;50.928;6.856;2022-08-03T04:06:06;3.90;;;3.00;;
5042;SDS011;2540;50.928;6.856;2022-08-03T04:08:49;5.03;;;3.30;;
5042;SDS011;2540;50.928;6.856;2022-08-03T04:11:35;5.67;;;3.30;;
5042;SDS011;2540;50.928;6.856;2022-08-03T04:14:03;9.03;;;3.53;;
5042;SDS011;2540;50.928;6.856;2022-08-03T04:16:30;4.03;;;3.20;;
5042;SDS011;2540;50.928;6.856;2022-08-03T04:18:56;6.23;;;3.77;;
5042;SDS011;2540;50.928;6.856;2022-08-03T04:21:23;5.40;;;3.10;;
5042;SDS011;2540;50.928;6.856;2022-08-03T04:23:50;3.63;;;3.10;;
5042;SDS011;2540;50.928;6.856;2022-08-03T04:26:16;4.80;;;3.20;;
5042;SDS011;2540;50.928;6.856;2022-08-03T04:28:43;4.53;;;3.43;;
5042;SDS011;2540;50.928;6.856;2022-08-03T04:31:10;6.93;;;3.00;;
5042;SDS011;2540;50.928;6.856;2022-08-03T04:33:36;5.00;;;3.50;;
5042;SDS011;2540;50.928;6.856;2022-08-03T04:36:03;5.10;;;3.53;;
5042;SDS011;2540;50.928;6.856;2022-08-03T04:38:29;4.97;;;3.50;;
5042;SDS011;2540;50.928;6.856;2022-08-03T04:40:55;5.10;;;3.03;;
5042;SDS011;2540;50.928;6.856;2022-08-03T04:43:20;4.30;;;2.70;;
5042;SDS011;2540;50.928;6.856;2022-08-03T04:45:46;3.77;;;3.07;;
5042;SDS011;2540;50.928;6.856;2022-08-03T04:48:12;4.63;;;3.40;;
5042;SDS011;2540;50.928;6.856;2022-08-03T04:50:38;4.63;;;3.50;;
5042;SDS011;2540;50.928;6.856;2022-08-03T04:53:04;3.40;;;2.93;;
5042;SDS011;2540;50.928;6.856;2022-08-03T04:55:30;5.13;;;3.87;;
5042;SDS011;2540;50.928;6.856;2022-08-03T04:57:56;4.70;;;3.43;;
5042;SDS011;2540;50.928;6.856;2022-08-03T05:00:22;5.33;;;4.10;;
5042;SDS011;2540;50.928;6.856;2022-08-03T05:02:47;3.37;;;3.00;;
5042;SDS011;2540;50.928;6.856;2022-08-03T05:05:12;3.90;;;3.20;;
5042;SDS011;2540;50.928;6.856;2022-08-03T05:07:37;4.90;;;3.67;;
5042;SDS011;2540;50.928;6.856;2022-08-03T05:10:06;3.50;;;3.03;;
5042;SDS011;2540;50.928;6.856;2022-08-03T05:12:32;4.80;;;3.70;;
5042;SDS011;2540;50.928;6.856;2022-08-03T05:14:57;5.37;;;3.17;;
5042;SDS011;2540;50.928;6.856;2022-08-03T05:17:22;4.33;;;3.40;;
5042;SDS011;2540;50.928;6.856;2022-08-03T05:19:48;5.90;;;3.43;;
5042;SDS011;2540;50.928;6.856;2022-08-03T05:22:13;7.00;;;3.40;;
5042;SDS011;2540;50.928;6.856;2022-08-03T05:24:38;5.70;;;4.10;;
5042;SDS011;2540;50.928;6.856;2022-08-03T05:27:03;5.00;;;3.63;;
5042;SDS011;2540;50.928;6.856;2022-08-03T05:29:28;10.80;;;3.73;;
5042;SDS011;2540;50.928;6.856;2022-08-03T05:31:54;6.50;;;3.30;;
5042;SDS011;2540;50.928;6.856;2022-08-03T05:34:19;4.97;;;3.27;;
5042;SDS011;2540;50.928;6.856;2022-08-03T05:36:44;6.73;;;4.07;;
5042;SDS011;2540;50.928;6.856;2022-08-03T05:39:10;4.80;;;3.77;;
5042;SDS011;2540;50.928;6.856;2022-08-03T05:41:35;5.37;;;4.07;;
5042;SDS011;2540;50.928;6.856;2022-08-03T05:44:00;4.40;;;3.60;;
5042;SDS011;2540;50.928;6.856;2022-08-03T05:46:26;4.17;;;2.97;;
5042;SDS011;2540;50.928;6.856;2022-08-03T05:48:52;5.47;;;3.53;;
5042;SDS011;2540;50.928;6.856;2022-08-03T05:51:17;6.83;;;3.37;;
5042;SDS011;2540;50.928;6.856;2022-08-03T05:53:43;4.63;;;3.50;;
5042;SDS011;2540;50.928;6.856;2022-08-03T05:56:09;8.33;;;3.60;;
5042;SDS011;2540;50.928;6.856;2022-08-03T05:58:34;15.13;;;3.97;;
5042;SDS011;2540;50.928;6.856;2022-08-03T06:01:02;8.03;;;4.33;;
5042;SDS011;2540;50.928;6.856;2022-08-03T06:03:28;9.90;;;3.10;;
5042;SDS011;2540;50.928;6.856;2022-08-03T06:05:53;4.47;;;3.40;;
5042;SDS011;2540;50.928;6.856;2022-08-03T06:08:20;4.97;;;3.43;;
5042;SDS011;2540;50.928;6.856;2022-08-03T06:10:45;6.03;;;3.70;;
5042;SDS011;2540;50.928;6.856;2022-08-03T06:13:10;4.67;;;3.33;;
5042;SDS011;2540;50.928;6.856;2022-08-03T06:15:36;5.13;;;3.20;;
5042;SDS011;2540;50.928;6.856;2022-08-03T06:18:01;6.00;;;3.40;;
5042;SDS011;2540;50.928;6.856;2022-08-03T06:20:26;7.37;;;3.23;;
5042;SDS011;2540;50.928;6.856;2022-08-03T06:22:51;5.13;;;2.87;;
5042;SDS011;2540;50.928;6.856;2022-08-03T06:25:16;7.13;;;3.40;;
5042;SDS011;2540;50.928;6.856;2022-08-03T06:27:43;4.50;;;3.33;;
5042;SDS011;2540;50.928;6.856;2022-08-03T06:30:09;7.90;;;3.23;;
5042;SDS011;2540;50.928;6.856;2022-08-03T06:32:35;7.80;;;3.50;;
5042;SDS011;2540;50.928;6.856;2022-08-03T06:35:00;4.40;;;3.40;;
5042;SDS011;2540;50.928;6.856;2022-08-03T06:37:26;7.73;;;3.80;;
5042;SDS011;2540;50.928;6.856;2022-08-03T06:39:51;5.50;;;3.10;;
5042;SDS011;2540;50.928;6.856;2022-08-03T06:42:17;5.47;;;2.77;;
5042;SDS011;2540;50.928;6.856;2022-08-03T06:44:42;10.40;;;3.47;;
5042;SDS011;2540;50.928;6.856;2022-08-03T06:47:07;5.90;;;4.00;;
5042;SDS011;2540;50.928;6.856;2022-08-03T06:49:33;9.17;;;4.33;;
5042;SDS011;2540;50.928;6.856;2022-08-03T06:51:58;12.43;;;4.57;;
5042;SDS011;2540;50.928;6.856;2022-08-03T06:54:24;9.93;;;3.67;;
5042;SDS011;2540;50.928;6.856;2022-08-03T06:56:49;17.60;;;4.50;;
5042;SDS011;2540;50.928;6.856;2022-08-03T06:59:14;7.87;;;3.80;;
5042;SDS011;2540;50.928;6.856;2022-08-03T07:01:40;12.57;;;5.07;;
5042;SDS011;2540;50.928;6.856;2022-08-03T07:04:05;10.30;;;4.17;;
5042;SDS011;2540;50.928;6.856;2022-08-03T07:06:30;10.53;;;4.60;;
5042;SDS011;2540;50.928;6.856;2022-08-03T07:08:55;20.73;;;3.83;;
5042;SDS011;2540;50.928;6.856;2022-08-03T07:11:21;9.57;;;3.87;;
5042;SDS011;2540;50.928;6.856;2022-08-03T07:13:46;13.23;;;3.77;;
5042;SDS011;2540;50.928;6.856;2022-08-03T07:16:11;5.30;;;3.10;;
5042;SDS011;2540;50.928;6.856;2022-08-03T07:18:37;8.27;;;3.70;;
5042;SDS011;2540;50.928;6.856;2022-08-03T07:21:02;6.37;;;3.27;;
5042;SDS011;2540;50.928;6.856;2022-08-03T07:23:28;10.87;;;3.80;;
5042;SDS011;2540;50.928;6.856;2022-08-03T07:25:53;6.53;;;2.90;;
5042;SDS011;2540;50.928;6.856;2022-08-03T07:28:18;3.83;;;3.00;;
5042;SDS011;2540;50.928;6.856;2022-08-03T07:30:43;5.40;;;3.07;;
5042;SDS011;2540;50.928;6.856;2022-08-03T07:33:09;8.60;;;3.10;;
5042;SDS011;2540;50.928;6.856;2022-08-03T07:35:34;6.30;;;3.13;;
5042;SDS011;2540;50.928;6.856;2022-08-03T07:37:59;6.43;;;3.10;;
5042;SDS011;2540;50.928;6.856;2022-08-03T07:40:24;10.50;;;3.27;;
5042;SDS011;2540;50.928;6.856;2022-08-03T07:42:49;14.57;;;3.37;;
5042;SDS011;2540;50.928;6.856;2022-08-03T07:45:14;6.10;;;3.23;;
5042;SDS011;2540;50.928;6.856;2022-08-03T07:47:40;4.30;;;2.53;;
5042;SDS011;2540;50.928;6.856;2022-08-03T07:50:05;10.83;;;3.17;;
5042;SDS011;2540;50.928;6.856;2022-08-03T07:52:30;9.80;;;3.13;;
5042;SDS011;2540;50.928;6.856;2022-08-03T07:55:15;6.00;;;3.07;;
5042;SDS011;2540;50.928;6.856;2022-08-03T07:57:41;7.20;;;2.80;;
5042;SDS011;2540;50.928;6.856;2022-08-03T08:00:10;4.80;;;2.70;;
5042;SDS011;2540;50.928;6.856;2022-08-03T08:02:36;4.33;;;3.20;;
5042;SDS011;2540;50.928;6.856;2022-08-03T08:05:01;9.60;;;3.17;;
5042;SDS011;2540;50.928;6.856;2022-08-03T08:07:26;4.50;;;3.37;;
5042;SDS011;2540;50.928;6.856;2022-08-03T08:09:52;3.93;;;2.83;;
5042;SDS011;2540;50.928;6.856;2022-08-03T08:12:17;3.67;;;2.63;;
5042;SDS011;2540;50.928;6.856;2022-08-03T08:14:42;5.20;;;2.13;;
5042;SDS011;2540;50.928;6.856;2022-08-03T08:17:10;3.83;;;2.70;;
5042;SDS011;2540;50.928;6.856;2022-08-03T08:19:36;6.57;;;3.00;;
5042;SDS011;2540;50.928;6.856;2022-08-03T08:22:01;7.93;;;2.60;;
5042;SDS011;2540;50.928;6.856;2022-08-03T08:24:26;6.97;;;2.87;;
5042;SDS011;2540;50.928;6.856;2022-08-03T08:26:54;6.90;;;3.10;;
5042;SDS011;2540;50.928;6.856;2022-08-03T08:29:19;4.80;;;2.77;;
5042;SDS011;2540;50.928;6.856;2022-08-03T08:31:47;3.77;;;2.93;;
5042;SDS011;2540;50.928;6.856;2022-08-03T08:34:12;13.30;;;2.50;;
5042;SDS011;2540;50.928;6.856;2022-08-03T08:36:37;7.63;;;3.17;;
5042;SDS011;2540;50.928;6.856;2022-08-03T08:39:02;8.10;;;2.77;;
5042;SDS011;2540;50.928;6.856;2022-08-03T08:41:28;5.87;;;2.83;;
5042;SDS011;2540;50.928;6.856;2022-08-03T08:43:53;6.07;;;2.83;;
5042;SDS011;2540;50.928;6.856;2022-08-03T08:46:19;5.57;;;2.53;;
5042;SDS011;2540;50.928;6.856;2022-08-03T08:48:45;14.83;;;2.40;;
5042;SDS011;2540;50.928;6.856;2022-08-03T08:51:10;5.40;;;3.07;;
5042;SDS011;2540;50.928;6.856;2022-08-03T08:53:36;5.77;;;3.10;;
5042;SDS011;2540;50.928;6.856;2022-08-03T08:56:02;5.73;;;2.67;;
5042;SDS011;2540;50.928;6.856;2022-08-03T08:58:29;6.43;;;2.90;;
5042;SDS011;2540;50.928;6.856;2022-08-03T09:00:55;5.83;;;2.83;;
5042;SDS011;2540;50.928;6.856;2022-08-03T09:03:20;8.77;;;3.00;;
5042;SDS011;2540;50.928;6.856;2022-08-03T09:05:45;8.53;;;3.47;;
5042;SDS011;2540;50.928;6.856;2022-08-03T09:08:12;10.27;;;2.37;;
5042;SDS011;2540;50.928;6.856;2022-08-03T09:10:37;3.27;;;2.57;;
5042;SDS011;2540;50.928;6.856;2022-08-03T09:13:02;5.27;;;2.07;;
5042;SDS011;2540;50.928;6.856;2022-08-03T09:15:31;8.93;;;2.40;;
5042;SDS011;2540;50.928;6.856;2022-08-03T09:17:58;2.33;;;1.70;;
5042;SDS011;2540;50.928;6.856;2022-08-03T09:20:24;3.13;;;2.40;;
5042;SDS011;2540;50.928;6.856;2022-08-03T09:22:59;3.50;;;2.10;;
5042;SDS011;2540;50.928;6.856;2022-08-03T09:25:25;3.23;;;2.00;;
5042;SDS011;2540;50.928;6.856;2022-08-03T09:27:51;5.23;;;2.37;;
5042;SDS011;2540;50.928;6.856;2022-08-03T09:30:17;12.20;;;2.30;;
5042;SDS011;2540;50.928;6.856;2022-08-03T09:32:42;4.63;;;2.00;;
5042;SDS011;2540;50.928;6.856;2022-08-03T09:35:10;3.37;;;2.00;;
5042;SDS011;2540;50.928;6.856;2022-08-03T09:37:35;3.53;;;1.87;;
5042;SDS011;2540;50.928;6.856;2022-08-03T09:40:06;2.80;;;2.07;;
5042;SDS011;2540;50.928;6.856;2022-08-03T09:42:31;4.47;;;1.80;;
5042;SDS011;2540;50.928;6.856;2022-08-03T09:45:02;1.57;;;1.00;;
5042;SDS011;2540;50.928;6.856;2022-08-03T09:47:31;5.73;;;1.40;;
5042;SDS011;2540;50.928;6.856;2022-08-03T09:50:01;4.10;;;1.60;;
5042;SDS011;2540;50.928;6.856;2022-08-03T09:52:31;2.80;;;1.37;;
5042;SDS011;2540;50.928;6.856;2022-08-03T09:54:56;7.63;;;1.60;;
5042;SDS011;2540;50.928;6.856;2022-08-03T09:57:23;2.87;;;1.40;;
5042;SDS011;2540;50.928;6.856;2022-08-03T09:59:49;5.97;;;1.60;;
5042;SDS011;2540;50.928;6.856;2022-08-03T10:02:21;2.37;;;1.80;;
5042;SDS011;2540;50.928;6.856;2022-08-03T10:04:47;7.03;;;1.83;;
5042;SDS011;2540;50.928;6.856;2022-08-03T10:07:13;3.80;;;1.93;;
5042;SDS011;2540;50.928;6.856;2022-08-03T10:09:39;2.50;;;1.30;;
5042;SDS011;2540;50.928;6.856;2022-08-03T10:12:16;5.10;;;1.50;;
5042;SDS011;2540;50.928;6.856;2022-08-03T10:14:47;1.80;;;1.60;;
5042;SDS011;2540;50.928;6.856;2022-08-03T10:17:13;1.80;;;1.50;;
5042;SDS011;2540;50.928;6.856;2022-08-03T10:19:38;1.47;;;1.37;;
5042;SDS011;2540;50.928;6.856;2022-08-03T10:22:05;3.60;;;1.50;;
5042;SDS011;2540;50.928;6.856;2022-08-03T10:24:33;6.33;;;2.10;;
5042;SDS011;2540;50.928;6.856;2022-08-03T10:27:00;13.93;;;1.90;;
5042;SDS011;2540;50.928;6.856;2022-08-03T10:29:27;6.80;;;1.57;;
5042;SDS011;2540;50.928;6.856;2022-08-03T10:31:53;4.80;;;1.80;;
5042;SDS011;2540;50.928;6.856;2022-08-03T10:34:24;3.23;;;1.50;;
5042;SDS011;2540;50.928;6.856;2022-08-03T10:36:50;2.20;;;1.40;;
5042;SDS011;2540;50.928;6.856;2022-08-03T10:39:17;5.40;;;1.70;;
5042;SDS011;2540;50.928;6.856;2022-08-03T10:41:43;2.73;;;2.03;;
5042;SDS011;2540;50.928;6.856;2022-08-03T10:44:12;4.80;;;1.90;;
5042;SDS011;2540;50.928;6.856;2022-08-03T10:46:40;4.00;;;2.00;;
5042;SDS011;2540;50.928;6.856;2022-08-03T10:49:06;3.00;;;1.50;;
5042;SDS011;2540;50.928;6.856;2022-08-03T10:51:31;6.17;;;1.70;;
5042;SDS011;2540;50.928;6.856;2022-08-03T10:54:39;5.10;;;2.67;;
5042;SDS011;2540;50.928;6.856;2022-08-03T10:56:45;4.07;;;1.80;;
5042;SDS011;2540;50.928;6.856;2022-08-03T11:02:10;3.60;;;1.93;;
5042;SDS011;2540;50.928;6.856;2022-08-03T11:04:37;4.30;;;1.70;;
5042;SDS011;2540;50.928;6.856;2022-08-03T11:09:43;2.40;;;2.03;;
5042;SDS011;2540;50.928;6.856;2022-08-03T11:12:22;2.67;;;2.10;;
5042;SDS011;2540;50.928;6.856;2022-08-03T11:14:47;5.67;;;1.87;;
5042;SDS011;2540;50.928;6.856;2022-08-03T11:17:13;3.27;;;1.80;;
5042;SDS011;2540;50.928;6.856;2022-08-03T11:19:42;1.70;;;1.40;;
5042;SDS011;2540;50.928;6.856;2022-08-03T11:22:07;3.50;;;1.80;;
5042;SDS011;2540;50.928;6.856;2022-08-03T11:29:38;4.17;;;1.80;;
5042;SDS011;2540;50.928;6.856;2022-08-03T11:33:02;3.20;;;1.60;;
5042;SDS011;2540;50.928;6.856;2022-08-03T11:35:10;6.30;;;1.90;;
5042;SDS011;2540;50.928;6.856;2022-08-03T11:37:36;4.53;;;1.90;;
5042;SDS011;2540;50.928;6.856;2022-08-03T11:43:04;2.23;;;1.60;;
5042;SDS011;2540;50.928;6.856;2022-08-03T11:45:30;3.60;;;1.60;;
5042;SDS011;2540;50.928;6.856;2022-08-03T11:47:55;1.50;;;1.37;;
5042;SDS011;2540;50.928;6.856;2022-08-03T11:50:22;2.13;;;1.60;;
5042;SDS011;2540;50.928;6.856;2022-08-03T11:52:48;2.40;;;1.40;;
5042;SDS011;2540;50.928;6.856;2022-08-03T11:55:14;4.50;;;1.67;;
5042;SDS011;2540;50.928;6.856;2022-08-03T11:57:41;5.10;;;1.90;;
5042;SDS011;2540;50.928;6.856;2022-08-03T12:02:53;7.10;;;1.73;;
5042;SDS011;2540;50.928;6.856;2022-08-03T12:05:18;5.33;;;2.13;;
5042;SDS011;2540;50.928;6.856;2022-08-03T12:07:44;3.87;;;1.60;;
5042;SDS011;2540;50.928;6.856;2022-08-03T12:10:13;6.83;;;1.63;;
5042;SDS011;2540;50.928;6.856;2022-08-03T12:12:39;5.17;;;1.83;;
5042;SDS011;2540;50.928;6.856;2022-08-03T12:15:05;4.40;;;1.70;;
5042;SDS011;2540;50.928;6.856;2022-08-03T12:17:37;3.90;;;1.70;;
5042;SDS011;2540;50.928;6.856;2022-08-03T12:20:04;4.80;;;1.80;;
5042;SDS011;2540;50.928;6.856;2022-08-03T12:22:33;2.53;;;1.40;;
5042;SDS011;2540;50.928;6.856;2022-08-03T12:24:58;2.50;;;1.83;;
5042;SDS011;2540;50.928;6.856;2022-08-03T12:27:24;6.87;;;1.60;;
5042;SDS011;2540;50.928;6.856;2022-08-03T12:29:52;6.20;;;1.90;;
5042;SDS011;2540;50.928;6.856;2022-08-03T12:32:18;9.30;;;1.93;;
5042;SDS011;2540;50.928;6.856;2022-08-03T12:34:43;3.90;;;1.67;;
5042;SDS011;2540;50.928;6.856;2022-08-03T12:37:09;2.80;;;1.80;;
5042;SDS011;2540;50.928;6.856;2022-08-03T12:39:34;2.10;;;1.90;;
5042;SDS011;2540;50.928;6.856;2022-08-03T12:41:59;3.70;;;1.50;;
5042;SDS011;2540;50.928;6.856;2022-08-03T12:44:28;1.70;;;1.50;;
5042;SDS011;2540;50.928;6.856;2022-08-03T12:46:56;4.07;;;1.80;;
5042;SDS011;2540;50.928;6.856;2022-08-03T12:49:21;2.30;;;1.50;;
5042;SDS011;2540;50.928;6.856;2022-08-03T12:51:56;1.93;;;1.50;;
5042;SDS011;2540;50.928;6.856;2022-08-03T12:54:22;4.20;;;1.80;;
5042;SDS011;2540;50.928;6.856;2022-08-03T12:56:58;4.30;;;1.70;;
5042;SDS011;2540;50.928;6.856;2022-08-03T12:59:28;5.00;;;1.47;;
5042;SDS011;2540;50.928;6.856;2022-08-03T13:01:53;14.30;;;1.80;;
5042;SDS011;2540;50.928;6.856;2022-08-03T13:04:31;3.80;;;1.93;;
5042;SDS011;2540;50.928;6.856;2022-08-03T13:06:58;2.53;;;1.53;;
5042;SDS011;2540;50.928;6.856;2022-08-03T13:09:23;3.33;;;1.70;;
5042;SDS011;2540;50.928;6.856;2022-08-03T13:12:44;3.27;;;1.73;;
5042;SDS011;2540;50.928;6.856;2022-08-03T13:14:35;4.83;;;1.47;;
5042;SDS011;2540;50.928;6.856;2022-08-03T13:17:01;3.00;;;1.63;;
5042;SDS011;2540;50.928;6.856;2022-08-03T13:19:26;3.60;;;1.70;;
5042;SDS011;2540;50.928;6.856;2022-08-03T13:21:51;2.97;;;1.70;;
5042;SDS011;2540;50.928;6.856;2022-08-03T13:24:16;4.80;;;1.80;;
5042;SDS011;2540;50.928;6.856;2022-08-03T13:26:43;1.93;;;1.50;;
5042;SDS011;2540;50.928;6.856;2022-08-03T13:29:08;10.90;;;1.87;;
5042;SDS011;2540;50.928;6.856;2022-08-03T13:31:33;1.80;;;1.70;;
5042;SDS011;2540;50.928;6.856;2022-08-03T13:33:58;4.17;;;2.03;;
5042;SDS011;2540;50.928;6.856;2022-08-03T13:36:23;4.27;;;1.60;;
5042;SDS011;2540;50.928;6.856;2022-08-03T13:38:49;1.67;;;1.33;;
5042;SDS011;2540;50.928;6.856;2022-08-03T13:41:14;8.83;;;1.60;;
5042;SDS011;2540;50.928;6.856;2022-08-03T13:43:39;5.47;;;1.60;;
5042;SDS011;2540;50.928;6.856;2022-08-03T13:46:04;1.73;;;1.63;;
5042;SDS011;2540;50.928;6.856;2022-08-03T13:48:29;1.73;;;1.63;;
5042;SDS011;2540;50.928;6.856;2022-08-03T13:50:55;2.67;;;1.57;;
5042;SDS011;2540;50.928;6.856;2022-08-03T13:53:20;8.20;;;1.97;;
5042;SDS011;2540;50.928;6.856;2022-08-03T13:55:45;2.00;;;1.70;;
5042;SDS011;2540;50.928;6.856;2022-08-03T13:58:10;3.37;;;1.70;;
5042;SDS011;2540;50.928;6.856;2022-08-03T14:00:36;3.33;;;1.87;;
5042;SDS011;2540;50.928;6.856;2022-08-03T14:03:02;3.77;;;2.00;;
5042;SDS011;2540;50.928;6.856;2022-08-03T14:05:27;3.00;;;1.70;;
5042;SDS011;2540;50.928;6.856;2022-08-03T14:07:54;4.80;;;1.60;;
5042;SDS011;2540;50.928;6.856;2022-08-03T14:10:19;7.70;;;2.20;;
5042;SDS011;2540;50.928;6.856;2022-08-03T14:12:44;3.80;;;1.77;;
5042;SDS011;2540;50.928;6.856;2022-08-03T14:15:09;3.87;;;1.63;;
5042;SDS011;2540;50.928;6.856;2022-08-03T14:17:36;2.33;;;1.50;;
5042;SDS011;2540;50.928;6.856;2022-08-03T14:20:02;3.53;;;1.70;;
5042;SDS011;2540;50.928;6.856;2022-08-03T14:22:29;2.13;;;1.80;;
5042;SDS011;2540;50.928;6.856;2022-08-03T14:24:54;7.40;;;1.83;;
5042;SDS011;2540;50.928;6.856;2022-08-03T14:27:19;6.97;;;1.60;;
5042;SDS011;2540;50.928;6.856;2022-08-03T14:29:44;5.67;;;1.73;;
5042;SDS011;2540;50.928;6.856;2022-08-03T14:32:09;2.07;;;1.40;;
5042;SDS011;2540;50.928;6.856;2022-08-03T14:34:35;5.70;;;1.70;;
5042;SDS011;2540;50.928;6.856;2022-08-03T14:37:00;2.20;;;1.37;;
5042;SDS011;2540;50.928;6.856;2022-08-03T14:39:25;2.10;;;1.63;;
5042;SDS011;2540;50.928;6.856;2022-08-03T14:41:50;2.70;;;1.90;;
5042;SDS011;2540;50.928;6.856;2022-08-03T14:44:15;4.13;;;2.00;;
5042;SDS011;2540;50.928;6.856;2022-08-03T14:46:40;2.33;;;1.60;;
5042;SDS011;2540;50.928;6.856;2022-08-03T14:49:06;5.07;;;1.93;;
5042;SDS011;2540;50.928;6.856;2022-08-03T14:51:31;6.40;;;1.70;;
5042;SDS011;2540;50.928;6.856;2022-08-03T14:53:56;2.57;;;1.70;;
5042;SDS011;2540;50.928;6.856;2022-08-03T14:56:21;1.73;;;1.60;;
5042;SDS011;2540;50.928;6.856;2022-08-03T14:58:47;3.87;;;1.87;;
5042;SDS011;2540;50.928;6.856;2022-08-03T15:01:12;2.00;;;1.70;;
5042;SDS011;2540;50.928;6.856;2022-08-03T15:03:37;1.60;;;1.40;;
5042;SDS011;2540;50.928;6.856;2022-08-03T15:06:02;9.63;;;2.00;;
5042;SDS011;2540;50.928;6.856;2022-08-03T15:08:27;7.07;;;1.73;;
5042;SDS011;2540;50.928;6.856;2022-08-03T15:10:53;3.20;;;1.50;;
5042;SDS011;2540;50.928;6.856;2022-08-03T15:13:18;1.70;;;1.57;;
5042;SDS011;2540;50.928;6.856;2022-08-03T15:15:44;3.33;;;1.63;;
5042;SDS011;2540;50.928;6.856;2022-08-03T15:18:09;3.70;;;1.70;;
5042;SDS011;2540;50.928;6.856;2022-08-03T15:20:35;5.07;;;1.50;;
5042;SDS011;2540;50.928;6.856;2022-08-03T15:23:00;1.80;;;1.30;;
5042;SDS011;2540;50.928;6.856;2022-08-03T15:25:25;3.30;;;1.70;;
5042;SDS011;2540;50.928;6.856;2022-08-03T15:27:51;4.73;;;1.50;;
5042;SDS011;2540;50.928;6.856;2022-08-03T15:30:16;1.60;;;1.50;;
5042;SDS011;2540;50.928;6.856;2022-08-03T15:32:41;3.87;;;1.83;;
5042;SDS011;2540;50.928;6.856;2022-08-03T15:35:06;8.23;;;2.03;;
5042;SDS011;2540;50.928;6.856;2022-08-03T15:37:32;2.60;;;1.87;;